createdAt,value
2023-03-20T00:01:58.558Z,51.65
2023-03-20T00:04:26.209Z,51.06
2023-03-20T00:06:52.869Z,51.71
2023-03-20T00:09:19.485Z,51.14
2023-03-20T00:11:53.840Z,51.36
2023-03-20T00:14:24.380Z,51.41
2023-03-20T00:16:51.802Z,51.41
2023-03-20T00:19:23.274Z,51.30
2023-03-20T00:21:51.391Z,51.45
2023-03-20T00:24:18.504Z,51.03
2023-03-20T00:26:46.823Z,51.66
2023-03-20T00:29:21.722Z,51.47
2023-03-20T00:31:48.937Z,51.75
2023-03-20T00:34:17.904Z,52.07
2023-03-20T00:36:44.424Z,52.06
2023-03-20T00:39:11.211Z,52.02
2023-03-20T00:41:54.984Z,51.72
2023-03-20T00:44:27.200Z,51.95
2023-03-20T00:46:57.005Z,52.13
2023-03-20T00:49:28.110Z,51.60
2023-03-20T00:51:55.533Z,51.42
2023-03-20T00:54:22.133Z,51.38
2023-03-20T00:57:27.057Z,51.27
2023-03-20T00:59:59.487Z,51.01
2023-03-20T01:02:29.888Z,51.11
2023-03-20T01:04:57.282Z,51.22
2023-03-20T01:07:24.113Z,51.06
2023-03-20T01:09:50.695Z,51.07
2023-03-20T01:12:17.537Z,50.99
2023-03-20T01:14:44.358Z,51.03
2023-03-20T01:17:18.541Z,51.40
2023-03-20T01:19:45.157Z,51.34
2023-03-20T01:22:14.121Z,50.84
2023-03-20T01:24:40.849Z,51.59
2023-03-20T01:27:19.129Z,51.63
2023-03-20T01:29:46.759Z,51.96
2023-03-20T01:32:17.031Z,51.87
2023-03-20T01:34:44.427Z,51.75
2023-03-20T01:37:37.188Z,51.72
2023-03-20T01:40:04.282Z,51.96
2023-03-20T01:42:32.181Z,51.84
2023-03-20T01:44:58.720Z,51.51
2023-03-20T01:47:26.223Z,51.73
2023-03-20T01:50:14.071Z,51.80
2023-03-20T01:52:40.701Z,51.90
2023-03-20T01:55:07.822Z,51.40
2023-03-20T01:57:34.616Z,51.39
2023-03-20T02:00:10.260Z,51.85
2023-03-20T02:02:38.171Z,51.38
2023-03-20T02:05:10.705Z,51.13
2023-03-20T02:07:38.323Z,52.10
2023-03-20T02:10:09.661Z,51.73
2023-03-20T02:12:38.017Z,51.91
2023-03-20T02:15:07.746Z,51.86
2023-03-20T02:17:34.596Z,51.57
2023-03-20T02:20:20.256Z,52.05
2023-03-20T02:23:25.315Z,52.26
2023-03-20T02:26:12.387Z,51.31
2023-03-20T02:28:54.270Z,51.19
2023-03-20T02:31:23.535Z,52.22
2023-03-20T02:34:05.091Z,51.86
2023-03-20T02:37:06.992Z,51.37
2023-03-20T02:39:39.344Z,51.50
2023-03-20T02:42:31.897Z,51.57
2023-03-20T02:45:21.456Z,51.85
2023-03-20T02:48:03.023Z,50.86
2023-03-20T02:50:38.813Z,51.51
2023-03-20T02:53:26.482Z,51.05
2023-03-20T02:56:03.528Z,51.29
2023-03-20T02:58:45.466Z,51.19
2023-03-20T03:01:18.101Z,51.40
2023-03-20T03:03:50.652Z,51.48
2023-03-20T03:06:26.154Z,51.51
2023-03-20T03:09:02.270Z,51.80
2023-03-20T03:11:30.583Z,51.47
2023-03-20T03:13:59.075Z,52.08
2023-03-20T03:16:37.034Z,51.88
2023-03-20T03:19:13.206Z,51.85
2023-03-20T03:21:41.532Z,52.51
2023-03-20T03:24:39.728Z,52.09
2023-03-20T03:27:19.865Z,52.38
2023-03-20T03:29:54.049Z,52.39
2023-03-20T03:32:33.392Z,52.31
2023-03-20T03:35:01.586Z,52.46
2023-03-20T03:37:28.151Z,52.30
2023-03-20T03:40:11.885Z,52.70
2023-03-20T03:43:00.560Z,53.44
2023-03-20T03:46:17.280Z,53.67
2023-03-20T03:48:48.932Z,52.73
2023-03-20T03:51:20.233Z,52.44
2023-03-20T03:53:53.946Z,52.91
2023-03-20T03:56:26.180Z,53.09
2023-03-20T03:58:57.847Z,53.15
2023-03-20T04:01:27.943Z,52.67
2023-03-20T04:03:59.017Z,53.29
2023-03-20T04:06:26.895Z,53.55
2023-03-20T04:08:53.637Z,54.85
2023-03-20T04:11:24.277Z,55.46
2023-03-20T04:13:52.504Z,55.31
2023-03-20T04:16:21.270Z,55.96
2023-03-20T04:18:48.172Z,55.88
2023-03-20T04:21:16.360Z,56.05
2023-03-20T04:23:43.850Z,56.30
2023-03-20T04:26:10.518Z,57.16
2023-03-20T04:28:37.244Z,56.04
2023-03-20T04:31:04.418Z,57.59
2023-03-20T04:33:31.226Z,57.31
2023-03-20T04:35:57.951Z,57.08
2023-03-20T04:38:24.686Z,57.35
2023-03-20T04:40:51.545Z,58.02
2023-03-20T04:43:18.734Z,59.22
2023-03-20T04:45:45.455Z,59.21
2023-03-20T04:48:12.005Z,58.68
2023-03-20T04:50:38.865Z,59.58
2023-03-20T04:53:05.914Z,59.40
2023-03-20T04:55:32.457Z,60.49
2023-03-20T04:57:59.052Z,61.32
2023-03-20T05:00:25.869Z,61.12
2023-03-20T05:02:52.441Z,62.69
2023-03-20T05:05:19.167Z,61.93
2023-03-20T05:07:46.022Z,62.75
2023-03-20T05:10:12.548Z,62.13
2023-03-20T05:12:39.178Z,62.67
2023-03-20T05:15:06.157Z,63.49
2023-03-20T05:17:32.740Z,64.04
2023-03-20T05:20:00.086Z,64.24
2023-03-20T05:22:26.738Z,64.48
2023-03-20T05:24:53.516Z,63.88
2023-03-20T05:27:20.181Z,63.88
2023-03-20T05:29:46.720Z,64.92
2023-03-20T05:32:13.284Z,64.32
2023-03-20T05:34:41.462Z,63.94
2023-03-20T05:37:08.045Z,64.16
2023-03-20T05:39:34.599Z,64.28
2023-03-20T05:42:01.491Z,64.59
2023-03-20T05:44:28.115Z,65.07
2023-03-20T05:46:54.670Z,65.53
2023-03-20T05:49:23.580Z,64.95
2023-03-20T05:51:50.219Z,64.81
2023-03-20T05:54:17.011Z,65.17
2023-03-20T05:56:43.665Z,65.12
2023-03-20T05:59:11.850Z,65.66
2023-03-20T06:01:38.412Z,64.97
2023-03-20T06:04:05.098Z,64.95
2023-03-20T06:06:31.811Z,64.79
2023-03-20T06:08:58.386Z,64.81
2023-03-20T06:11:25.020Z,64.92
2023-03-20T06:13:54.583Z,65.11
2023-03-20T06:16:21.639Z,65.22
2023-03-20T06:18:49.205Z,64.46
2023-03-20T06:21:15.757Z,64.64
2023-03-20T06:23:42.329Z,64.66
2023-03-20T06:26:08.960Z,64.38
2023-03-20T06:28:35.823Z,64.66
2023-03-20T06:31:02.382Z,64.76
2023-03-20T06:33:31.075Z,64.95
2023-03-20T06:35:57.830Z,64.42
2023-03-20T06:38:24.491Z,64.63
2023-03-20T06:40:51.107Z,64.66
2023-03-20T06:43:17.636Z,64.01
2023-03-20T06:45:44.149Z,63.73
2023-03-20T06:48:11.323Z,63.65
2023-03-20T06:50:37.869Z,62.76
2023-03-20T06:53:04.416Z,62.37
2023-03-20T06:55:31.532Z,62.46
2023-03-20T06:57:58.106Z,62.47
2023-03-20T07:00:24.962Z,61.57
2023-03-20T07:02:51.658Z,60.20
2023-03-20T07:05:18.439Z,60.54
2023-03-20T07:07:45.076Z,59.74
2023-03-20T07:10:12.515Z,55.86
2023-03-20T07:12:39.921Z,56.12
2023-03-20T07:15:07.262Z,56.46
2023-03-20T07:17:33.885Z,54.86
2023-03-20T07:20:00.613Z,53.52
2023-03-20T07:22:29.675Z,53.23
2023-03-20T07:24:57.057Z,52.61
2023-03-20T07:27:23.671Z,49.64
2023-03-20T07:29:50.222Z,49.87
2023-03-20T07:32:17.106Z,50.25
2023-03-20T07:34:44.392Z,49.48
2023-03-20T07:37:11.439Z,47.99
2023-03-20T07:39:38.000Z,47.47
2023-03-20T07:42:04.927Z,47.57
2023-03-20T07:44:31.511Z,47.54
2023-03-20T07:46:58.072Z,46.76
2023-03-20T07:49:24.708Z,46.21
2023-03-20T07:51:51.614Z,45.89
2023-03-20T07:54:18.410Z,45.41
2023-03-20T07:56:45.256Z,45.32
2023-03-20T07:59:12.950Z,43.97
2023-03-20T08:01:39.596Z,44.31
2023-03-20T08:04:06.362Z,44.36
2023-03-20T08:06:33.031Z,42.70
2023-03-20T08:08:59.780Z,42.90
2023-03-20T08:11:26.586Z,42.34
2023-03-20T08:13:53.172Z,41.64
2023-03-20T08:16:19.780Z,41.77
2023-03-20T08:18:46.408Z,42.18
2023-03-20T08:21:12.997Z,40.90
2023-03-20T08:23:39.591Z,39.72
2023-03-20T08:26:07.146Z,39.71
2023-03-20T08:28:46.571Z,39.33
2023-03-20T08:31:15.016Z,39.67
2023-03-20T08:33:41.647Z,39.45
2023-03-20T08:36:08.903Z,38.89
2023-03-20T08:38:35.952Z,38.91
2023-03-20T08:41:02.652Z,38.72
2023-03-20T08:43:29.453Z,38.75
2023-03-20T08:45:56.192Z,38.54
2023-03-20T08:48:23.109Z,37.71
2023-03-20T08:50:50.019Z,37.42
2023-03-20T08:53:16.802Z,37.66
2023-03-20T08:55:51.241Z,37.38
2023-03-20T08:58:18.214Z,37.21
2023-03-20T09:00:45.553Z,37.13
2023-03-20T09:03:17.589Z,36.78
2023-03-20T09:05:46.514Z,36.56
2023-03-20T09:08:13.799Z,35.78
2023-03-20T09:10:40.893Z,35.83
2023-03-20T09:13:25.645Z,35.81
2023-03-20T09:15:53.809Z,35.25
2023-03-20T09:18:21.079Z,35.36
2023-03-20T09:20:48.489Z,33.75
2023-03-20T09:23:15.302Z,34.56
2023-03-20T09:25:41.885Z,34.77
2023-03-20T09:28:08.424Z,34.53
2023-03-20T09:30:35.451Z,34.21
2023-03-20T09:33:02.242Z,33.62
2023-03-20T09:35:28.884Z,33.61
2023-03-20T09:37:56.598Z,33.35
2023-03-20T09:40:32.724Z,33.34
2023-03-20T09:43:17.570Z,33.33
2023-03-20T09:46:22.224Z,33.03
2023-03-20T09:48:57.745Z,32.80
2023-03-20T09:51:38.294Z,33.38
2023-03-20T09:54:18.623Z,33.12
2023-03-20T09:56:45.845Z,33.26
2023-03-20T09:59:16.420Z,33.49
2023-03-20T10:01:50.898Z,33.14
2023-03-20T10:04:17.767Z,32.77
2023-03-20T10:06:44.440Z,32.43
2023-03-20T10:09:18.716Z,32.00
2023-03-20T10:11:51.142Z,32.51
2023-03-20T10:14:41.852Z,30.54
2023-03-20T10:17:14.673Z,31.42
2023-03-20T10:19:50.966Z,31.47
2023-03-20T10:22:27.236Z,31.78
2023-03-20T10:25:18.318Z,31.87
2023-03-20T10:27:57.986Z,30.90
2023-03-20T10:30:38.965Z,31.88
2023-03-20T10:33:33.107Z,31.55
2023-03-20T10:36:02.716Z,31.28
2023-03-20T10:38:56.899Z,31.71
2023-03-20T10:41:31.497Z,31.61
2023-03-20T10:44:00.179Z,29.67
2023-03-20T10:46:43.316Z,28.88
2023-03-20T10:49:18.800Z,29.54
2023-03-20T10:51:52.888Z,30.07
2023-03-20T10:54:33.896Z,28.98
2023-03-20T10:57:03.756Z,29.70
2023-03-20T10:59:40.411Z,29.32
2023-03-20T11:02:12.372Z,28.59
2023-03-20T11:04:39.871Z,28.40
2023-03-20T11:07:25.468Z,27.99
2023-03-20T11:10:04.602Z,27.73
2023-03-20T11:12:43.534Z,28.29
2023-03-20T11:15:32.836Z,28.64
2023-03-20T11:18:04.901Z,28.73
2023-03-20T11:20:38.848Z,28.30
2023-03-20T11:23:08.411Z,28.44
2023-03-20T11:25:40.749Z,28.82
2023-03-20T11:28:32.150Z,28.48
2023-03-20T11:31:06.642Z,28.19
2023-03-20T11:33:44.216Z,28.24
2023-03-20T11:36:25.305Z,28.56
2023-03-20T11:38:58.596Z,29.45
2023-03-20T11:41:27.749Z,29.90
2023-03-20T11:43:54.977Z,29.28
2023-03-20T11:46:23.707Z,29.45
2023-03-20T11:49:24.876Z,27.44
2023-03-20T11:51:52.710Z,27.38
2023-03-20T11:54:23.445Z,28.40
2023-03-20T11:57:00.966Z,29.23
2023-03-20T11:59:34.114Z,28.53
2023-03-20T12:02:17.088Z,28.22
2023-03-20T12:04:45.776Z,28.52
2023-03-20T12:07:33.528Z,28.39
2023-03-20T12:10:04.827Z,28.34
2023-03-20T12:12:50.266Z,28.01
2023-03-20T12:15:30.827Z,28.01
2023-03-20T12:17:59.360Z,27.59
2023-03-20T12:20:44.126Z,25.72
2023-03-20T12:23:11.188Z,26.75
2023-03-20T12:26:08.960Z,26.83
2023-03-20T12:28:41.485Z,26.77
2023-03-20T12:31:16.846Z,25.74
2023-03-20T12:34:05.863Z,25.27
2023-03-20T12:36:36.030Z,25.17
2023-03-20T12:39:05.192Z,25.58
2023-03-20T12:41:46.604Z,25.80
2023-03-20T12:44:38.323Z,25.41
2023-03-20T12:47:26.870Z,26.27
2023-03-20T12:49:59.384Z,25.78
2023-03-20T12:52:45.324Z,26.20
2023-03-20T12:55:18.071Z,26.17
2023-03-20T12:57:57.601Z,26.37
2023-03-20T13:00:45.176Z,25.15
2023-03-20T13:03:23.274Z,26.68
2023-03-20T13:05:57.801Z,26.94
2023-03-20T13:08:43.040Z,27.13
2023-03-20T13:11:37.319Z,26.01
2023-03-20T13:14:28.690Z,26.34
2023-03-20T13:17:11.602Z,26.79
2023-03-20T13:20:10.933Z,26.64
2023-03-20T13:22:58.465Z,26.40
2023-03-20T13:25:43.407Z,25.87
2023-03-20T13:28:23.102Z,26.15
2023-03-20T13:30:59.314Z,26.44
2023-03-20T13:33:43.655Z,24.11
2023-03-20T13:36:22.157Z,24.33
2023-03-20T13:38:57.857Z,24.25
2023-03-20T13:41:26.489Z,24.49
2023-03-20T13:44:01.064Z,26.26
2023-03-20T13:46:41.583Z,24.28
2023-03-20T13:49:43.311Z,23.90
2023-03-20T13:52:20.957Z,24.77
2023-03-20T13:55:24.991Z,23.83
2023-03-20T13:58:19.946Z,24.73
2023-03-20T14:00:50.064Z,24.79
2023-03-20T14:03:25.509Z,25.19
2023-03-20T14:05:52.641Z,25.03
2023-03-20T14:08:28.208Z,25.08
2023-03-20T14:11:05.246Z,24.62
2023-03-20T14:13:34.593Z,25.10
2023-03-20T14:16:08.593Z,25.07
2023-03-20T14:18:36.312Z,25.18
2023-03-20T14:21:11.700Z,25.09
2023-03-20T14:23:42.945Z,26.23
2023-03-20T14:26:19.465Z,26.17
2023-03-20T14:28:59.899Z,26.75
2023-03-20T14:31:42.060Z,26.74
2023-03-20T14:34:11.896Z,26.61
2023-03-20T14:36:47.727Z,26.91
2023-03-20T14:39:32.772Z,27.42
2023-03-20T14:42:05.447Z,27.28
2023-03-20T14:44:39.577Z,27.83
2023-03-20T14:47:43.209Z,28.98
2023-03-20T14:50:15.390Z,30.62
2023-03-20T14:52:53.855Z,30.61
2023-03-20T14:55:20.534Z,29.75
2023-03-20T14:57:56.032Z,28.63
2023-03-20T15:00:25.945Z,27.47
2023-03-20T15:03:14.279Z,28.04
2023-03-20T15:05:42.228Z,26.71
2023-03-20T15:08:34.921Z,25.44
2023-03-20T15:11:10.423Z,25.54
2023-03-20T15:13:38.035Z,25.74
2023-03-20T15:16:07.401Z,26.96
2023-03-20T15:18:41.977Z,27.11
2023-03-20T15:21:17.140Z,27.18
2023-03-20T15:23:45.611Z,27.76
2023-03-20T15:26:15.432Z,28.61
2023-03-20T15:28:43.449Z,28.87
2023-03-20T15:31:21.668Z,29.54
2023-03-20T15:33:48.556Z,29.70
2023-03-20T15:36:18.820Z,30.44
2023-03-20T15:38:46.909Z,30.46
2023-03-20T15:41:32.107Z,30.18
2023-03-20T15:44:06.344Z,30.56
2023-03-20T15:46:32.904Z,30.80
2023-03-20T15:49:00.332Z,31.80
2023-03-20T15:51:28.173Z,31.36
2023-03-20T15:53:54.964Z,30.59
2023-03-20T15:56:26.525Z,30.85
2023-03-20T15:58:55.711Z,30.90
2023-03-20T16:01:26.330Z,29.76
2023-03-20T16:03:58.164Z,28.75
2023-03-20T16:06:25.621Z,29.37
2023-03-20T16:09:07.282Z,29.27
2023-03-20T16:11:42.503Z,29.20
2023-03-20T16:14:27.667Z,28.85
2023-03-20T16:16:57.345Z,29.03
2023-03-20T16:19:26.303Z,29.24
2023-03-20T16:22:19.263Z,29.18
2023-03-20T16:24:48.342Z,29.57
2023-03-20T16:27:29.839Z,30.29
2023-03-20T16:29:57.062Z,31.04
2023-03-20T16:32:45.614Z,32.20
2023-03-20T16:35:21.995Z,32.54
2023-03-20T16:37:54.914Z,33.12
2023-03-20T16:40:36.364Z,33.66
2023-03-20T16:43:23.897Z,33.66
2023-03-20T16:45:54.080Z,34.24
2023-03-20T16:48:31.538Z,34.83
2023-03-20T16:51:02.205Z,34.88
2023-03-20T16:53:37.082Z,35.22
2023-03-20T16:56:05.143Z,35.55
2023-03-20T16:58:34.049Z,36.25
2023-03-20T17:01:06.275Z,36.28
2023-03-20T17:03:44.637Z,37.10
2023-03-20T17:06:21.111Z,36.88
2023-03-20T17:09:13.121Z,37.72
2023-03-20T17:11:44.655Z,37.46
2023-03-20T17:14:11.262Z,37.91
2023-03-20T17:16:40.345Z,38.16
2023-03-20T17:19:18.118Z,38.25
2023-03-20T17:21:46.360Z,38.69
2023-03-20T17:24:14.978Z,38.98
2023-03-20T17:26:44.187Z,39.21
2023-03-20T17:29:12.273Z,39.28
2023-03-20T17:31:39.435Z,39.53
2023-03-20T17:34:06.307Z,40.53
2023-03-20T17:36:34.915Z,40.46
2023-03-20T17:39:02.124Z,40.58
2023-03-20T17:41:29.168Z,40.88
2023-03-20T17:43:58.832Z,41.36
2023-03-20T17:46:28.224Z,40.99
2023-03-20T17:49:26.830Z,41.52
2023-03-20T17:51:54.305Z,42.47
2023-03-20T17:54:21.488Z,42.96
2023-03-20T17:56:48.147Z,44.15
2023-03-20T17:59:15.356Z,43.89
2023-03-20T18:01:42.563Z,43.73
2023-03-20T18:04:09.413Z,44.00
2023-03-20T18:06:37.022Z,43.36
2023-03-20T18:09:04.979Z,45.19
2023-03-20T18:11:31.820Z,43.86
2023-03-20T18:13:59.844Z,45.97
2023-03-20T18:16:27.459Z,45.07
2023-03-20T18:18:54.717Z,46.62
2023-03-20T18:21:21.420Z,46.04
2023-03-20T18:23:48.032Z,46.47
2023-03-20T18:26:22.342Z,46.72
2023-03-20T18:28:50.272Z,47.46
2023-03-20T18:31:19.168Z,47.26
2023-03-20T18:33:50.171Z,47.80
2023-03-20T18:36:19.410Z,47.40
2023-03-20T18:38:46.419Z,47.78
2023-03-20T18:41:13.501Z,48.89
2023-03-20T18:43:40.812Z,49.13
2023-03-20T18:46:11.843Z,49.50
2023-03-20T18:48:38.377Z,49.60
2023-03-20T18:51:05.139Z,48.87
2023-03-20T18:53:31.737Z,49.09
2023-03-20T18:55:58.398Z,49.16
2023-03-20T18:58:28.560Z,50.18
2023-03-20T19:00:57.292Z,49.12
2023-03-20T19:03:24.603Z,50.74
2023-03-20T19:05:52.916Z,50.19
2023-03-20T19:08:20.164Z,50.46
2023-03-20T19:10:47.051Z,51.67
2023-03-20T19:13:16.882Z,50.58
2023-03-20T19:15:44.839Z,51.51
2023-03-20T19:18:20.480Z,51.24
2023-03-20T19:20:51.913Z,51.33
2023-03-20T19:23:20.539Z,51.85
2023-03-20T19:25:49.830Z,51.96
2023-03-20T19:28:21.799Z,51.83
2023-03-20T19:30:50.364Z,51.89
2023-03-20T19:33:17.049Z,52.17
2023-03-20T19:36:01.675Z,52.13
2023-03-20T19:38:28.939Z,52.25
2023-03-20T19:40:55.683Z,52.57
2023-03-20T19:43:23.177Z,52.80
2023-03-20T19:45:54.980Z,52.28
2023-03-20T19:48:43.306Z,52.62
2023-03-20T19:51:26.556Z,52.43
2023-03-20T19:53:54.134Z,53.01
2023-03-20T19:56:22.678Z,53.39
2023-03-20T19:58:50.036Z,52.81
2023-03-20T20:01:20.102Z,53.64
2023-03-20T20:03:48.148Z,53.66
2023-03-20T20:06:15.938Z,53.44
2023-03-20T20:08:48.416Z,53.94
2023-03-20T20:11:17.649Z,54.24
2023-03-20T20:16:31.300Z,54.05
2023-03-20T20:18:57.920Z,55.14
2023-03-20T20:24:11.076Z,54.52
2023-03-20T20:26:41.160Z,54.96
2023-03-20T20:29:14.452Z,54.61
2023-03-20T20:31:41.144Z,56.32
2023-03-20T20:35:07.381Z,56.49
2023-03-20T20:39:41.186Z,55.58
2023-03-20T20:42:07.757Z,56.64
2023-03-20T20:44:34.758Z,56.71
2023-03-20T20:47:01.354Z,56.31
2023-03-20T20:49:27.920Z,56.18
2023-03-20T20:51:54.618Z,55.93
2023-03-20T20:54:21.386Z,56.78
2023-03-20T20:56:47.949Z,56.85
2023-03-20T20:59:14.599Z,56.34
2023-03-20T21:01:41.285Z,56.29
2023-03-20T21:04:08.064Z,56.77
2023-03-20T21:07:03.837Z,56.75
2023-03-20T21:09:21.325Z,56.22
2023-03-20T21:11:48.694Z,57.75
2023-03-20T21:14:15.416Z,57.42
2023-03-20T21:16:41.968Z,57.59
2023-03-20T21:19:08.619Z,57.57
2023-03-20T21:21:35.709Z,58.74
2023-03-20T21:24:02.751Z,57.83
2023-03-20T21:26:29.428Z,59.75
2023-03-20T21:28:56.259Z,58.92
2023-03-20T21:31:30.421Z,60.16
2023-03-20T21:33:57.929Z,60.66
2023-03-20T21:36:24.723Z,59.77
2023-03-20T21:39:07.254Z,59.87
2023-03-20T21:41:36.325Z,60.29
2023-03-20T21:44:03.749Z,59.99
2023-03-20T21:47:09.279Z,61.95
2023-03-20T21:50:19.356Z,61.00
2023-03-20T21:52:48.846Z,60.35
2023-03-20T21:55:34.888Z,61.60
2023-03-20T22:03:22.310Z,62.65
2023-03-20T22:12:14.422Z,62.66
2023-03-20T22:15:11.997Z,63.76
2023-03-20T22:17:56.239Z,63.85
2023-03-20T22:23:21.682Z,63.91
2023-03-20T22:26:11.033Z,64.33
2023-03-20T22:40:08.680Z,65.58
2023-03-20T22:45:02.002Z,65.91
2023-03-20T22:47:30.282Z,65.86
2023-03-20T22:49:56.961Z,67.37
2023-03-20T22:52:34.793Z,67.11
2023-03-20T22:55:09.504Z,68.74
2023-03-20T22:57:45.711Z,68.93
2023-03-20T23:00:20.108Z,68.20
2023-03-20T23:02:47.582Z,68.33
2023-03-20T23:05:14.216Z,67.71
2023-03-20T23:07:40.788Z,66.89
2023-03-20T23:10:09.718Z,65.98
2023-03-20T23:12:40.563Z,65.32
2023-03-20T23:15:08.851Z,65.18
2023-03-20T23:17:35.459Z,64.47
2023-03-20T23:20:11.570Z,64.23
2023-03-20T23:22:39.458Z,64.30
2023-03-20T23:25:16.420Z,63.86
2023-03-20T23:27:47.557Z,63.81
2023-03-20T23:30:14.873Z,63.74
2023-03-20T23:32:41.814Z,63.50
2023-03-20T23:35:09.067Z,63.04
2023-03-20T23:37:36.812Z,63.29
2023-03-20T23:40:04.699Z,62.69
2023-03-20T23:42:31.382Z,62.74
2023-03-20T23:45:04.430Z,63.09
2023-03-20T23:47:45.488Z,62.97
2023-03-20T23:50:20.685Z,63.17
2023-03-20T23:53:03.609Z,62.84
2023-03-20T23:55:36.436Z,62.86
2023-03-20T23:58:03.356Z,62.82
